createdAt,value
2023-03-08T00:02:27.469Z,51.60
2023-03-08T00:04:59.066Z,49.85
2023-03-08T00:07:30.219Z,50.42
2023-03-08T00:10:01.025Z,49.85
2023-03-08T00:12:32.988Z,49.60
2023-03-08T00:15:04.196Z,51.00
2023-03-08T00:17:37.807Z,51.38
2023-03-08T00:20:11.518Z,49.72
2023-03-08T00:22:43.795Z,50.20
2023-03-08T00:25:18.058Z,50.10
2023-03-08T00:27:49.251Z,50.63
2023-03-08T00:30:20.275Z,50.45
2023-03-08T00:32:51.059Z,49.95
2023-03-08T00:35:21.897Z,49.92
2023-03-08T00:37:52.713Z,49.38
2023-03-08T00:40:23.337Z,49.83
2023-03-08T00:42:59.075Z,50.22
2023-03-08T00:45:30.100Z,49.63
2023-03-08T00:48:01.135Z,51.30
2023-03-08T00:50:32.403Z,52.53
2023-03-08T00:53:03.511Z,53.00
2023-03-08T00:58:08.097Z,50.63
2023-03-08T01:00:39.578Z,51.83
2023-03-08T01:03:10.411Z,50.70
2023-03-08T01:05:46.567Z,53.63
2023-03-08T01:08:19.457Z,53.53
2023-03-08T01:11:01.717Z,53.38
2023-03-08T01:13:54.538Z,52.63
2023-03-08T01:16:34.105Z,54.38
2023-03-08T01:19:07.508Z,52.20
2023-03-08T01:21:40.417Z,54.00
2023-03-08T01:24:12.419Z,51.33
2023-03-08T01:26:43.444Z,54.00
2023-03-08T01:29:14.235Z,53.35
2023-03-08T01:31:45.308Z,54.15
2023-03-08T01:34:17.093Z,52.22
2023-03-08T01:36:48.206Z,53.42
2023-03-08T01:39:22.108Z,51.90
2023-03-08T01:41:53.117Z,52.13
2023-03-08T01:44:24.672Z,50.80
2023-03-08T01:46:57.080Z,53.88
2023-03-08T01:50:07.901Z,53.58
2023-03-08T01:53:03.167Z,54.58
2023-03-08T01:55:36.940Z,56.65
2023-03-08T01:58:07.902Z,54.28
2023-03-08T02:00:41.264Z,55.22
2023-03-08T02:03:13.990Z,55.45
2023-03-08T02:05:46.035Z,54.60
2023-03-08T02:08:24.081Z,55.45
2023-03-08T02:10:56.826Z,56.63
2023-03-08T02:13:28.269Z,56.53
2023-03-08T02:16:02.295Z,47.55
2023-03-08T02:18:34.143Z,55.08
2023-03-08T02:21:05.416Z,60.72
2023-03-08T02:23:37.869Z,63.45
2023-03-08T02:26:09.185Z,62.85
2023-03-08T02:28:41.946Z,62.70
2023-03-08T02:31:20.003Z,60.83
2023-03-08T02:34:11.544Z,60.42
2023-03-08T02:36:42.461Z,62.22
2023-03-08T02:42:02.282Z,61.08
2023-03-08T02:44:36.553Z,59.95
2023-03-08T02:47:10.157Z,60.58
2023-03-08T02:49:47.418Z,62.17
2023-03-08T02:52:18.606Z,60.85
2023-03-08T02:54:50.573Z,59.10
2023-03-08T02:57:21.841Z,56.58
2023-03-08T02:59:57.612Z,61.63
2023-03-08T03:05:04.667Z,61.67
2023-03-08T03:07:52.306Z,67.03
2023-03-08T03:13:09.217Z,68.70
2023-03-08T03:15:41.515Z,67.15
2023-03-08T03:18:13.008Z,66.00
2023-03-08T03:20:44.022Z,64.72
2023-03-08T03:23:16.448Z,68.22
2023-03-08T03:25:53.997Z,68.50
2023-03-08T03:28:26.025Z,67.03
2023-03-08T03:30:58.461Z,68.07
2023-03-08T03:33:30.744Z,70.20
2023-03-08T03:36:03.422Z,68.45
2023-03-08T03:38:38.031Z,67.72
2023-03-08T03:41:12.922Z,70.70
2023-03-08T03:43:44.922Z,74.78
2023-03-08T03:46:21.730Z,74.25
2023-03-08T03:48:56.682Z,70.40
2023-03-08T03:51:30.323Z,75.80
2023-03-08T03:54:12.239Z,73.60
2023-03-08T03:57:04.493Z,69.28
2023-03-08T03:59:39.998Z,68.93
2023-03-08T04:02:11.520Z,66.85
2023-03-08T04:04:52.507Z,68.70
2023-03-08T04:07:47.209Z,67.22
2023-03-08T04:10:19.272Z,68.15
2023-03-08T04:12:52.170Z,67.50
2023-03-08T04:18:00.307Z,67.55
2023-03-08T04:20:34.070Z,67.15
2023-03-08T04:23:07.541Z,67.10
2023-03-08T04:25:42.848Z,65.78
2023-03-08T04:28:16.462Z,68.30
2023-03-08T04:30:48.187Z,68.22
2023-03-08T04:33:21.243Z,67.25
2023-03-08T04:38:28.187Z,74.47
2023-03-08T04:41:06.458Z,69.18
2023-03-08T04:43:59.553Z,69.15
2023-03-08T04:46:40.740Z,72.38
2023-03-08T04:49:14.079Z,72.60
2023-03-08T04:51:48.914Z,74.72
2023-03-08T04:54:20.208Z,77.82
2023-03-08T04:56:57.103Z,74.65
2023-03-08T04:59:29.333Z,75.30
2023-03-08T05:02:03.202Z,74.20
2023-03-08T05:04:36.731Z,73.50
2023-03-08T05:07:11.522Z,74.35
2023-03-08T05:09:43.227Z,74.10
2023-03-08T05:12:14.444Z,74.28
2023-03-08T05:14:58.600Z,71.28
2023-03-08T05:17:30.894Z,75.50
2023-03-08T05:20:03.165Z,60.65
2023-03-08T05:22:55.453Z,72.93
2023-03-08T05:25:32.522Z,74.25
2023-03-08T05:28:06.060Z,77.10
2023-03-08T05:30:38.037Z,74.18
2023-03-08T05:33:10.000Z,76.97
2023-03-08T05:35:42.018Z,76.00
2023-03-08T05:38:13.255Z,77.13
2023-03-08T05:40:44.590Z,75.43
2023-03-08T05:43:19.098Z,73.55
2023-03-08T05:46:12.240Z,74.45
2023-03-08T05:48:45.201Z,71.43
2023-03-08T05:51:20.509Z,77.00
2023-03-08T05:54:03.501Z,75.07
2023-03-08T05:56:48.868Z,75.05
2023-03-08T05:59:30.903Z,78.68
2023-03-08T06:02:26.604Z,78.70
2023-03-08T06:04:59.253Z,78.57
2023-03-08T06:07:30.919Z,77.43
2023-03-08T06:10:10.228Z,73.72
2023-03-08T06:12:41.946Z,69.50
2023-03-08T06:17:50.815Z,73.72
2023-03-08T06:20:23.971Z,76.60
2023-03-08T06:22:55.997Z,75.72
2023-03-08T06:25:28.756Z,77.97
2023-03-08T06:27:59.793Z,79.90
2023-03-08T06:30:46.624Z,78.28
2023-03-08T06:33:23.171Z,78.13
2023-03-08T06:36:07.065Z,77.60
2023-03-08T06:38:40.500Z,77.05
2023-03-08T06:41:15.212Z,77.05
2023-03-08T06:43:47.389Z,73.78
2023-03-08T06:46:20.787Z,74.38
2023-03-08T06:48:52.899Z,74.63
2023-03-08T06:51:24.487Z,73.18
2023-03-08T06:53:55.537Z,77.30
2023-03-08T06:56:29.836Z,77.82
2023-03-08T06:59:02.344Z,74.68
2023-03-08T07:01:33.372Z,74.05
2023-03-08T07:04:04.526Z,74.90
2023-03-08T07:06:35.998Z,75.72
2023-03-08T07:09:08.416Z,75.18
2023-03-08T07:11:41.045Z,77.85
2023-03-08T07:14:14.864Z,78.68
2023-03-08T07:16:46.071Z,79.93
2023-03-08T07:19:18.314Z,80.38
2023-03-08T07:21:51.391Z,81.87
2023-03-08T07:24:22.774Z,81.22
2023-03-08T07:26:56.360Z,82.68
2023-03-08T07:29:29.577Z,81.47
2023-03-08T07:32:00.909Z,81.78
2023-03-08T07:34:32.224Z,83.65
2023-03-08T07:37:03.549Z,81.65
2023-03-08T07:39:34.838Z,82.57
2023-03-08T07:42:06.241Z,81.90
2023-03-08T07:44:38.935Z,76.65
2023-03-08T07:47:10.795Z,78.13
2023-03-08T07:49:42.011Z,81.20
2023-03-08T07:54:57.427Z,80.13
2023-03-08T07:57:28.531Z,83.90
2023-03-08T07:59:59.688Z,81.15
2023-03-08T08:02:32.074Z,81.45
2023-03-08T08:05:12.045Z,80.95
2023-03-08T08:07:49.957Z,80.55
2023-03-08T08:10:22.723Z,83.72
2023-03-08T08:12:57.304Z,79.75
2023-03-08T08:15:29.955Z,79.30
2023-03-08T08:18:01.829Z,81.60
2023-03-08T08:20:33.067Z,78.43
2023-03-08T08:23:07.825Z,83.10
2023-03-08T08:25:42.385Z,80.60
2023-03-08T08:28:20.096Z,83.20
2023-03-08T08:31:09.842Z,81.28
2023-03-08T08:33:41.203Z,79.38
2023-03-08T08:36:26.323Z,80.15
2023-03-08T08:39:03.968Z,82.00
2023-03-08T08:41:35.204Z,80.45
2023-03-08T08:44:06.814Z,80.63
2023-03-08T08:46:38.499Z,79.55
2023-03-08T08:49:17.417Z,82.00
2023-03-08T08:52:17.091Z,78.82
2023-03-08T08:54:48.168Z,87.22
2023-03-08T08:57:19.221Z,77.93
2023-03-08T08:59:50.602Z,75.70
2023-03-08T09:02:21.772Z,100.22
2023-03-08T09:04:52.880Z,81.32
2023-03-08T09:07:32.529Z,214.68
2023-03-08T09:10:04.801Z,97.28
2023-03-08T09:12:36.156Z,98.78
2023-03-08T09:15:08.739Z,87.50
2023-03-08T09:17:41.349Z,86.20
2023-03-08T09:20:13.284Z,75.80
2023-03-08T09:22:44.689Z,67.57
2023-03-08T09:25:17.487Z,73.93
2023-03-08T09:27:50.468Z,61.60
2023-03-08T09:30:22.904Z,69.13
2023-03-08T09:32:54.174Z,65.97
2023-03-08T09:35:25.322Z,67.45
2023-03-08T09:37:56.661Z,64.78
2023-03-08T09:40:30.400Z,66.50
2023-03-08T09:43:06.684Z,67.80
2023-03-08T09:45:38.168Z,70.70
2023-03-08T09:48:32.278Z,70.03
2023-03-08T09:51:10.613Z,68.18
2023-03-08T09:54:05.758Z,67.63
2023-03-08T09:56:52.288Z,66.75
2023-03-08T09:59:54.934Z,65.50
2023-03-08T10:02:49.697Z,69.60
2023-03-08T10:05:58.170Z,69.32
2023-03-08T10:08:47.052Z,68.03
2023-03-08T10:11:38.241Z,71.32
2023-03-08T10:14:32.532Z,70.57
2023-03-08T10:17:11.889Z,68.13
2023-03-08T10:20:10.352Z,73.00
2023-03-08T10:22:44.147Z,67.43
2023-03-08T10:28:01.068Z,65.28
2023-03-08T10:30:42.284Z,63.13
2023-03-08T10:33:16.399Z,65.80
2023-03-08T10:36:07.907Z,65.85
2023-03-08T10:38:40.172Z,67.00
2023-03-08T10:41:18.799Z,65.72
2023-03-08T10:44:00.546Z,65.90
2023-03-08T10:46:49.911Z,65.35
2023-03-08T10:49:27.960Z,68.32
2023-03-08T10:52:01.582Z,67.60
2023-03-08T10:54:32.755Z,69.57
2023-03-08T10:57:05.269Z,67.70
2023-03-08T10:59:39.211Z,68.32
2023-03-08T11:02:16.669Z,69.47
2023-03-08T11:04:56.860Z,66.25
2023-03-08T11:07:34.166Z,62.17
2023-03-08T11:10:26.028Z,68.05
2023-03-08T11:13:48.495Z,68.07
2023-03-08T11:16:57.849Z,69.20
2023-03-08T11:19:40.138Z,68.05
2023-03-08T11:22:11.303Z,70.68
2023-03-08T11:25:00.493Z,63.90
2023-03-08T11:28:04.667Z,69.20
2023-03-08T11:30:44.770Z,65.63
2023-03-08T11:33:41.868Z,66.18
2023-03-08T11:36:30.241Z,70.53
2023-03-08T11:39:21.430Z,68.80
2023-03-08T11:42:26.298Z,70.00
2023-03-08T11:47:52.346Z,69.50
2023-03-08T11:50:27.803Z,71.85
2023-03-08T11:53:44.068Z,55.35
2023-03-08T11:56:21.509Z,71.97
2023-03-08T11:59:06.506Z,71.07
2023-03-08T12:02:04.838Z,69.22
2023-03-08T12:05:20.500Z,68.50
2023-03-08T12:08:02.311Z,69.95
2023-03-08T12:11:19.856Z,69.30
2023-03-08T12:14:18.176Z,66.50
2023-03-08T12:17:22.529Z,67.80
2023-03-08T12:19:54.037Z,67.25
2023-03-08T12:22:36.971Z,69.80
2023-03-08T12:25:20.123Z,65.88
2023-03-08T12:28:06.522Z,67.28
2023-03-08T12:30:59.766Z,69.13
2023-03-08T12:36:32.070Z,60.50
2023-03-08T12:39:26.726Z,68.30
2023-03-08T12:42:17.890Z,69.45
2023-03-08T12:44:51.291Z,68.93
2023-03-08T12:47:24.969Z,72.38
2023-03-08T12:49:58.685Z,68.13
2023-03-08T12:52:36.444Z,69.13
2023-03-08T12:58:18.609Z,69.88
2023-03-08T13:01:02.269Z,67.75
2023-03-08T13:03:44.295Z,72.97
2023-03-08T13:06:25.961Z,70.32
2023-03-08T13:09:15.190Z,65.88
2023-03-08T13:11:53.884Z,73.88
2023-03-08T13:14:43.582Z,74.38
2023-03-08T13:17:32.340Z,72.53
2023-03-08T13:20:13.121Z,71.93
2023-03-08T13:23:01.053Z,75.00
2023-03-08T13:25:57.153Z,71.63
2023-03-08T13:28:47.279Z,69.15
2023-03-08T13:31:26.140Z,70.90
2023-03-08T13:34:01.706Z,74.13
2023-03-08T13:36:35.188Z,71.53
2023-03-08T13:39:29.792Z,69.88
2023-03-08T13:42:14.712Z,68.28
2023-03-08T13:45:19.674Z,71.30
2023-03-08T13:47:51.106Z,71.22
2023-03-08T13:50:31.407Z,69.60
2023-03-08T13:53:38.161Z,70.72
2023-03-08T13:56:12.018Z,70.47
2023-03-08T13:58:48.707Z,71.50
2023-03-08T14:01:25.891Z,70.70
2023-03-08T14:04:01.472Z,70.57
2023-03-08T14:06:38.284Z,69.60
2023-03-08T14:09:10.221Z,70.50
2023-03-08T14:12:05.999Z,71.90
2023-03-08T14:14:46.011Z,72.15
2023-03-08T14:17:28.855Z,72.03
2023-03-08T14:20:05.200Z,70.43
2023-03-08T14:22:40.464Z,69.22
2023-03-08T14:25:29.503Z,72.15
2023-03-08T14:28:01.367Z,69.75
2023-03-08T14:30:36.404Z,72.45
2023-03-08T14:33:18.421Z,62.50
2023-03-08T14:35:59.536Z,68.10
2023-03-08T14:38:35.632Z,72.20
2023-03-08T14:41:13.309Z,71.35
2023-03-08T14:43:51.183Z,70.70
2023-03-08T14:46:27.060Z,69.40
2023-03-08T14:49:04.828Z,70.35
2023-03-08T14:51:45.978Z,70.32
2023-03-08T14:54:36.340Z,72.93
2023-03-08T14:57:32.078Z,73.18
2023-03-08T15:00:17.112Z,71.32
2023-03-08T15:02:49.466Z,72.90
2023-03-08T15:05:29.102Z,72.00
2023-03-08T15:08:02.573Z,72.95
2023-03-08T15:10:55.582Z,74.53
2023-03-08T15:13:27.297Z,75.57
2023-03-08T15:15:58.555Z,73.80
2023-03-08T15:18:33.013Z,74.88
2023-03-08T15:21:04.647Z,74.07
2023-03-08T15:23:56.503Z,72.93
2023-03-08T15:26:31.619Z,77.22
2023-03-08T15:29:06.213Z,74.47
2023-03-08T15:31:37.764Z,74.13
2023-03-08T15:34:08.986Z,76.43
2023-03-08T15:36:40.317Z,74.20
2023-03-08T15:39:14.702Z,72.80
2023-03-08T15:41:46.144Z,71.20
2023-03-08T15:44:19.028Z,74.57
2023-03-08T15:46:52.629Z,72.80
2023-03-08T15:49:24.229Z,73.57
2023-03-08T15:51:56.657Z,71.43
2023-03-08T15:54:27.893Z,73.35
2023-03-08T15:57:19.327Z,72.50
2023-03-08T15:59:52.054Z,72.03
2023-03-08T16:02:23.646Z,72.70
2023-03-08T16:04:57.120Z,71.60
2023-03-08T16:07:28.486Z,72.03
2023-03-08T16:10:01.966Z,72.60
2023-03-08T16:12:34.297Z,71.03
2023-03-08T16:15:12.451Z,72.07
2023-03-08T16:18:03.537Z,62.10
2023-03-08T16:20:54.475Z,67.00
2023-03-08T16:23:26.066Z,69.80
2023-03-08T16:26:14.605Z,74.28
2023-03-08T16:28:48.014Z,69.55
2023-03-08T16:31:23.850Z,66.05
2023-03-08T16:33:54.924Z,72.38
2023-03-08T16:36:26.296Z,69.65
2023-03-08T16:38:57.472Z,73.20
2023-03-08T16:41:30.833Z,72.63
2023-03-08T16:44:02.285Z,72.32
2023-03-08T16:46:33.783Z,73.30
2023-03-08T16:49:07.861Z,71.10
2023-03-08T16:51:59.449Z,69.03
2023-03-08T16:54:50.271Z,72.35
2023-03-08T16:57:23.125Z,71.85
2023-03-08T16:59:54.222Z,73.30
2023-03-08T17:02:25.604Z,72.05
2023-03-08T17:04:56.735Z,68.82
2023-03-08T17:07:27.610Z,72.20
2023-03-08T17:09:59.694Z,71.10
2023-03-08T17:12:30.716Z,71.45
2023-03-08T17:15:01.869Z,71.43
2023-03-08T17:17:33.132Z,69.40
2023-03-08T17:20:04.234Z,69.00
2023-03-08T17:22:36.180Z,70.15
2023-03-08T17:25:07.600Z,75.90
2023-03-08T17:27:39.088Z,70.70
2023-03-08T17:30:11.846Z,63.58
2023-03-08T17:32:43.212Z,71.72
2023-03-08T17:35:14.592Z,73.13
2023-03-08T17:37:46.025Z,70.47
2023-03-08T17:40:17.281Z,71.93
2023-03-08T17:42:52.407Z,72.47
2023-03-08T17:45:23.811Z,73.43
2023-03-08T17:48:02.248Z,70.88
2023-03-08T17:50:35.841Z,69.78
2023-03-08T17:53:07.012Z,72.10
2023-03-08T17:55:39.997Z,69.38
2023-03-08T17:58:12.394Z,70.75
2023-03-08T18:00:43.532Z,73.57
2023-03-08T18:03:14.554Z,70.78
2023-03-08T18:05:54.932Z,69.95
2023-03-08T18:08:25.677Z,70.63
2023-03-08T18:10:56.646Z,71.38
2023-03-08T18:13:28.004Z,72.43
2023-03-08T18:15:58.859Z,73.60
2023-03-08T18:18:29.782Z,76.25
2023-03-08T18:21:12.757Z,73.65
2023-03-08T18:23:44.694Z,72.30
2023-03-08T18:26:17.626Z,72.85
2023-03-08T18:28:49.020Z,76.27
2023-03-08T18:31:24.995Z,75.47
2023-03-08T18:34:05.213Z,72.32
2023-03-08T18:36:37.218Z,73.53
2023-03-08T18:39:10.216Z,74.20
2023-03-08T18:41:41.729Z,72.72
2023-03-08T18:44:15.157Z,72.32
2023-03-08T18:46:48.939Z,73.03
2023-03-08T18:49:20.182Z,69.35
2023-03-08T18:51:51.139Z,65.30
2023-03-08T18:54:22.322Z,71.03
2023-03-08T18:56:58.733Z,70.32
2023-03-08T18:59:32.926Z,69.85
2023-03-08T19:02:04.476Z,69.88
2023-03-08T19:04:39.926Z,67.93
2023-03-08T19:07:11.554Z,69.10
2023-03-08T19:09:45.088Z,68.05
2023-03-08T19:12:16.491Z,68.80
2023-03-08T19:14:50.962Z,67.38
2023-03-08T19:17:21.742Z,68.82
2023-03-08T19:19:52.387Z,68.40
2023-03-08T19:22:23.433Z,67.80
2023-03-08T19:24:55.479Z,70.00
2023-03-08T19:27:26.538Z,72.38
2023-03-08T19:29:57.491Z,71.78
2023-03-08T19:32:29.030Z,71.90
2023-03-08T19:34:59.785Z,74.95
2023-03-08T19:37:30.461Z,73.93
2023-03-08T19:40:01.693Z,72.60
2023-03-08T19:42:33.395Z,73.75
2023-03-08T19:45:04.684Z,74.80
2023-03-08T19:47:35.651Z,70.05
2023-03-08T19:50:08.429Z,73.60
2023-03-08T19:52:39.503Z,71.57
2023-03-08T19:55:10.837Z,72.65
2023-03-08T19:57:43.720Z,69.45
2023-03-08T20:00:15.270Z,68.53
2023-03-08T20:03:05.959Z,68.50
2023-03-08T20:05:45.961Z,70.82
2023-03-08T20:08:18.694Z,71.22
2023-03-08T20:10:50.966Z,69.18
2023-03-08T20:13:22.023Z,64.63
2023-03-08T20:15:52.899Z,66.75
2023-03-08T20:18:23.948Z,67.22
2023-03-08T20:20:54.743Z,68.25
2023-03-08T20:23:25.876Z,69.07
2023-03-08T20:25:56.750Z,66.65
2023-03-08T20:28:27.843Z,67.40
2023-03-08T20:30:58.953Z,70.10
2023-03-08T20:33:29.777Z,69.22
2023-03-08T20:36:05.073Z,69.50
2023-03-08T20:38:36.308Z,68.38
2023-03-08T20:41:13.442Z,66.82
2023-03-08T20:43:46.173Z,67.57
2023-03-08T20:46:19.069Z,70.10
2023-03-08T20:48:50.618Z,68.72
2023-03-08T20:51:23.248Z,70.32
2023-03-08T20:53:56.397Z,69.90
2023-03-08T20:56:28.050Z,73.03
2023-03-08T20:59:01.686Z,71.60
2023-03-08T21:01:34.717Z,71.15
2023-03-08T21:04:06.772Z,72.22
2023-03-08T21:06:37.748Z,71.43
2023-03-08T21:09:08.482Z,69.55
2023-03-08T21:11:39.678Z,68.97
2023-03-08T21:14:11.522Z,73.15
2023-03-08T21:16:42.696Z,70.63
2023-03-08T21:19:13.773Z,72.95
2023-03-08T21:21:49.899Z,74.75
2023-03-08T21:24:24.370Z,68.10
2023-03-08T21:26:55.730Z,67.55
2023-03-08T21:29:29.199Z,66.97
2023-03-08T21:32:01.100Z,66.68
2023-03-08T21:34:33.387Z,70.68
2023-03-08T21:37:04.422Z,78.43
2023-03-08T21:39:35.126Z,67.60
2023-03-08T21:42:06.442Z,69.05
2023-03-08T21:44:37.689Z,74.18
2023-03-08T21:47:09.205Z,73.45
2023-03-08T21:49:40.002Z,69.97
2023-03-08T21:52:11.375Z,69.25
2023-03-08T21:54:42.357Z,70.90
2023-03-08T21:57:13.310Z,70.15
2023-03-08T21:59:44.130Z,69.45
2023-03-08T22:02:15.436Z,68.53
2023-03-08T22:04:46.564Z,70.68
2023-03-08T22:07:17.599Z,72.88
2023-03-08T22:09:48.725Z,75.43
2023-03-08T22:12:21.152Z,70.47
2023-03-08T22:14:51.954Z,70.78
2023-03-08T22:17:22.771Z,70.10
2023-03-08T22:19:55.993Z,70.47
2023-03-08T22:22:27.210Z,70.07
2023-03-08T22:24:58.207Z,70.32
2023-03-08T22:27:29.902Z,70.65
2023-03-08T22:30:01.367Z,70.45
2023-03-08T22:32:32.364Z,72.32
2023-03-08T22:35:03.459Z,69.38
2023-03-08T22:37:34.474Z,69.00
2023-03-08T22:40:07.801Z,69.55
2023-03-08T22:42:39.059Z,70.40
2023-03-08T22:45:10.330Z,71.72
2023-03-08T22:47:41.459Z,70.75
2023-03-08T22:50:13.466Z,70.88
2023-03-08T22:52:44.214Z,70.97
2023-03-08T22:55:15.281Z,72.70
2023-03-08T22:57:46.502Z,71.78
2023-03-08T23:00:19.955Z,72.13
2023-03-08T23:02:51.381Z,70.60
2023-03-08T23:05:23.047Z,72.60
2023-03-08T23:07:56.780Z,72.70
2023-03-08T23:10:27.988Z,71.55
2023-03-08T23:12:58.957Z,72.40
2023-03-08T23:15:31.805Z,68.15
2023-03-08T23:18:02.850Z,73.80
2023-03-08T23:20:34.948Z,72.55
2023-03-08T23:23:06.044Z,72.03
2023-03-08T23:25:37.060Z,70.68
2023-03-08T23:28:08.597Z,72.07
2023-03-08T23:30:39.989Z,71.93
2023-03-08T23:33:12.807Z,74.22
2023-03-08T23:35:44.287Z,75.18
2023-03-08T23:38:20.119Z,76.07
2023-03-08T23:40:51.218Z,72.28
2023-03-08T23:43:22.845Z,74.55
2023-03-08T23:45:54.759Z,77.00
2023-03-08T23:48:25.824Z,73.53
2023-03-08T23:50:59.385Z,74.00
2023-03-08T23:53:30.206Z,75.45
2023-03-08T23:56:01.734Z,76.00
2023-03-08T23:58:43.659Z,77.30
